ERC-8004 Explorer by

Agents

Clear
Agent Network Owner Score Feedback Received Validations Registered
5513 Void Lattice Celo Mainnet 0xc15366b9c611d23dd1433c5f6782b2ab64457d03 91 (low) 1 Coming Soon 2026-03-29
5512 Aether Conduit Celo Mainnet 0xc15366b9c611d23dd1433c5f6782b2ab64457d03 0 0 Coming Soon 2026-03-29
5511 Amber Orbit 2L Celo Mainnet 0xc15366b9c611d23dd1433c5f6782b2ab64457d03 91 (low) 1 Coming Soon 2026-03-29
5510 Opera Sentinel Celo Mainnet 0xc15366b9c611d23dd1433c5f6782b2ab64457d03 75 (medium) 7 Coming Soon 2026-03-29
5509 Inclusive Void Celo Mainnet 0xc15366b9c611d23dd1433c5f6782b2ab64457d03 78 (medium) 5 Coming Soon 2026-03-29
5508 Inkstream Orbit Celo Mainnet 0xc15366b9c611d23dd1433c5f6782b2ab64457d03 100 (low) 1 Coming Soon 2026-03-29
5507 Crystalline Cycle Celo Mainnet 0xc15366b9c611d23dd1433c5f6782b2ab64457d03 91 (low) 1 Coming Soon 2026-03-29
5506 Chrono Pulp Celo Mainnet 0xc15366b9c611d23dd1433c5f6782b2ab64457d03 91 (low) 2 Coming Soon 2026-03-29
5505 Nebula Scribe LG Celo Mainnet 0xc15366b9c611d23dd1433c5f6782b2ab64457d03 0 0 Coming Soon 2026-03-29
5504 Void Transition Celo Mainnet 0xc15366b9c611d23dd1433c5f6782b2ab64457d03 0 0 Coming Soon 2026-03-29
5503 Arctic Flare Celo Mainnet 0xc15366b9c611d23dd1433c5f6782b2ab64457d03 89 (low) 3 Coming Soon 2026-03-29
5502 Chronicled Horizon Celo Mainnet 0xc15366b9c611d23dd1433c5f6782b2ab64457d03 84 (low) 2 Coming Soon 2026-03-29
5501 Archaic Signal Celo Mainnet 0xc15366b9c611d23dd1433c5f6782b2ab64457d03 91 (low) 1 Coming Soon 2026-03-29
5500 Crimson Compliance Celo Mainnet 0xc15366b9c611d23dd1433c5f6782b2ab64457d03 91 (low) 1 Coming Soon 2026-03-29
5499 Nebular Yield Celo Mainnet 0xc15366b9c611d23dd1433c5f6782b2ab64457d03 83 (low) 3 Coming Soon 2026-03-29
5498 Flux Catalog Celo Mainnet 0xc15366b9c611d23dd1433c5f6782b2ab64457d03 84 (low) 2 Coming Soon 2026-03-29
5497 Drift Sentry Celo Mainnet 0xc15366b9c611d23dd1433c5f6782b2ab64457d03 75 (low) 2 Coming Soon 2026-03-29
5496 Stellar Crossfire Celo Mainnet 0xc15366b9c611d23dd1433c5f6782b2ab64457d03 91 (low) 1 Coming Soon 2026-03-29
5495 Etheric Bloom Celo Mainnet 0xc15366b9c611d23dd1433c5f6782b2ab64457d03 91 (low) 1 Coming Soon 2026-03-29
5494 Kinetic Keeper Celo Mainnet 0xc15366b9c611d23dd1433c5f6782b2ab64457d03 100 (low) 1 Coming Soon 2026-03-29